Time;durP1;ratioP1;P1;durP2;ratioP2;P2;SDS_P1;SDS_P2;PMS_P1;PMS_P2;Temp;Humidity;BMP_temperature;BMP_pressure;BME280_temperature;BME280_humidity;BME280_pressure;Samples;Min_cycle;Max_cycle;Signal;HPM_P1;HPM_P2
2023/11/27 00:04:14;;;;;;;18.50;15.55;;;4.70;99.90;;;;;;15251595;22;20130;-84
2023/11/27 00:10:16;;;;;;;17.63;15.40;;;4.60;99.90;;;;;;15256663;23;20102;-84
2023/11/27 00:16:18;;;;;;;23.08;16.30;;;4.60;99.90;;;;;;15255081;23;20143;-84
2023/11/27 00:22:21;;;;;;;19.50;17.42;;;4.60;99.90;;;;;;15247317;23;20464;-83
2023/11/27 00:28:23;;;;;;;25.23;19.50;;;4.50;99.90;;;;;;15244249;23;20036;-82
2023/11/27 00:34:25;;;;;;;24.80;18.15;;;4.60;99.90;;;;;;15248623;23;20456;-83
2023/11/27 00:40:26;;;;;;;25.63;19.60;;;4.60;99.90;;;;;;15256132;23;20025;-83
2023/11/27 00:46:28;;;;;;;33.50;22.10;;;4.50;99.90;;;;;;15251951;23;20361;-84
2023/11/27 00:52:31;;;;;;;31.48;22.20;;;4.50;99.90;;;;;;15251871;23;20029;-84
2023/11/27 00:58:33;;;;;;;31.88;21.48;;;4.70;99.90;;;;;;15255971;23;20128;-84
2023/11/27 01:04:39;;;;;;;30.92;24.38;;;4.60;99.90;;;;;;15255430;23;20029;-85
2023/11/27 01:10:44;;;;;;;36.67;24.13;;;4.50;99.90;;;;;;15252851;23;20025;-84
2023/11/27 01:16:46;;;;;;;39.28;24.85;;;4.40;99.90;;;;;;15248654;23;20179;-84
2023/11/27 01:22:49;;;;;;;33.22;22.92;;;4.40;99.90;;;;;;15249787;23;20230;-85
2023/11/27 01:28:50;;;;;;;37.15;24.13;;;4.40;99.90;;;;;;15253116;23;20025;-84
2023/11/27 01:34:53;;;;;;;36.97;25.02;;;4.30;99.90;;;;;;15254421;23;20028;-81
2023/11/27 01:40:54;;;;;;;31.77;22.42;;;4.20;99.90;;;;;;15246542;23;20022;-80
2023/11/27 01:46:57;;;;;;;31.75;22.63;;;4.20;99.90;;;;;;15245535;23;20026;-82
2023/11/27 01:53:01;;;;;;;36.00;22.63;;;4.10;99.90;;;;;;15253380;23;20021;-81
2023/11/27 01:59:03;;;;;;;37.30;24.92;;;4.10;99.90;;;;;;15235937;23;20022;-82
2023/11/27 02:05:07;;;;;;;33.25;21.33;;;4.10;99.90;;;;;;15246318;23;20033;-81
2023/11/27 02:11:09;;;;;;;30.47;20.63;;;4.10;99.90;;;;;;15244725;23;20074;-80
2023/11/27 02:17:12;;;;;;;28.65;19.40;;;4.00;99.90;;;;;;15246346;23;20026;-81
2023/11/27 02:23:15;;;;;;;24.75;19.42;;;4.10;99.90;;;;;;15250001;23;20183;-80
2023/11/27 02:29:17;;;;;;;27.95;17.70;;;4.10;99.90;;;;;;15244423;23;20030;-81
2023/11/27 02:35:19;;;;;;;25.52;16.88;;;4.10;99.90;;;;;;15245667;23;20036;-81
2023/11/27 02:41:21;;;;;;;26.48;17.40;;;4.10;99.90;;;;;;15243351;23;20093;-83
2023/11/27 02:47:23;;;;;;;23.60;15.75;;;4.10;99.90;;;;;;15250913;23;20022;-81
2023/11/27 02:53:25;;;;;;;21.05;14.50;;;4.10;99.90;;;;;;15245279;23;20392;-81
2023/11/27 02:59:27;;;;;;;22.83;15.18;;;4.10;99.90;;;;;;15249286;23;20022;-85
2023/11/27 03:05:29;;;;;;;18.35;14.43;;;4.10;99.90;;;;;;15251208;23;20048;-84
2023/11/27 03:11:31;;;;;;;17.35;14.70;;;4.10;99.90;;;;;;15246843;23;20057;-85
2023/11/27 03:17:33;;;;;;;22.10;14.65;;;4.00;99.90;;;;;;15240227;23;20026;-84
2023/11/27 03:23:35;;;;;;;18.42;14.65;;;4.00;99.90;;;;;;15251051;23;20050;-84
2023/11/27 03:29:37;;;;;;;17.70;14.20;;;4.00;99.90;;;;;;15247824;23;20421;-85
2023/11/27 03:35:39;;;;;;;21.17;15.05;;;3.90;99.90;;;;;;15250099;23;20053;-84
2023/11/27 03:41:41;;;;;;;17.23;13.73;;;3.90;99.90;;;;;;15248258;23;20427;-86
2023/11/27 03:47:43;;;;;;;18.70;13.48;;;3.90;99.90;;;;;;15257885;23;20097;-84
2023/11/27 03:53:45;;;;;;;21.02;13.48;;;3.90;99.90;;;;;;15248916;23;20065;-83
2023/11/27 03:59:48;;;;;;;18.10;13.73;;;3.90;99.90;;;;;;15245571;23;20020;-81
2023/11/27 04:05:50;;;;;;;18.00;13.63;;;3.90;99.90;;;;;;15241375;23;20038;-84
2023/11/27 04:11:52;;;;;;;16.70;12.90;;;3.90;99.90;;;;;;15251532;23;20030;-83
2023/11/27 04:17:55;;;;;;;15.05;11.88;;;3.90;99.90;;;;;;15249297;23;20022;-83
2023/11/27 04:23:57;;;;;;;17.30;13.07;;;3.80;99.90;;;;;;15247952;23;20079;-84
2023/11/27 04:29:59;;;;;;;15.70;12.55;;;3.80;99.90;;;;;;15252251;23;20369;-84
2023/11/27 04:36:02;;;;;;;14.05;11.75;;;3.80;99.90;;;;;;15248710;23;20022;-85
2023/11/27 04:42:04;;;;;;;12.57;10.82;;;3.80;99.90;;;;;;15254244;23;20468;-84
2023/11/27 04:48:06;;;;;;;12.80;10.80;;;3.80;99.90;;;;;;15250153;23;20431;-84
2023/11/27 04:54:08;;;;;;;12.40;10.57;;;3.80;99.90;;;;;;15255149;23;20033;-84
2023/11/27 05:00:15;;;;;;;10.85;9.35;;;3.70;99.90;;;;;;15245091;23;20052;-84
2023/11/27 05:06:17;;;;;;;10.15;8.95;;;3.70;99.90;;;;;;15253257;23;20025;-84
2023/11/27 05:12:19;;;;;;;10.73;8.73;;;3.80;99.90;;;;;;15254700;23;20025;-84
2023/11/27 05:18:33;;;;;;;7.80;7.10;;;3.60;99.90;;;;;;15251798;23;20051;-84
2023/11/27 05:24:35;;;;;;;9.65;7.72;;;3.60;99.90;;;;;;15250799;23;20900;-84
2023/11/27 05:30:37;;;;;;;10.45;9.15;;;3.60;99.90;;;;;;15248066;23;20029;-85
2023/11/27 05:36:40;;;;;;;10.30;9.25;;;3.60;99.90;;;;;;15247580;23;20558;-85
2023/11/27 05:42:43;;;;;;;9.98;8.57;;;3.40;99.90;;;;;;15248981;23;20029;-85
2023/11/27 05:48:45;;;;;;;9.25;8.35;;;3.30;99.90;;;;;;15249611;22;20040;-83
2023/11/27 05:54:47;;;;;;;9.07;8.18;;;3.30;99.90;;;;;;15250228;23;20079;-84
2023/11/27 06:00:51;;;;;;;8.35;7.47;;;3.30;99.90;;;;;;15248294;23;20037;-88
2023/11/27 06:06:53;;;;;;;9.05;8.15;;;3.20;99.90;;;;;;15246568;23;20050;-81
2023/11/27 06:12:55;;;;;;;9.90;8.95;;;3.20;99.90;;;;;;15243289;23;20483;-82
2023/11/27 06:18:57;;;;;;;9.80;8.80;;;3.10;99.90;;;;;;15247393;23;20025;-81
2023/11/27 06:25:00;;;;;;;10.57;9.50;;;3.10;99.90;;;;;;15251282;23;20021;-81
2023/11/27 06:31:02;;;;;;;10.57;9.65;;;3.10;99.90;;;;;;15244258;23;20068;-81
2023/11/27 06:37:04;;;;;;;10.38;9.38;;;3.10;99.90;;;;;;15237140;23;20029;-81
2023/11/27 06:43:06;;;;;;;11.25;9.77;;;3.10;99.90;;;;;;15247369;23;20021;-81
2023/11/27 06:49:09;;;;;;;11.98;10.57;;;3.00;99.90;;;;;;15245633;23;20458;-81
2023/11/27 06:55:11;;;;;;;12.85;10.70;;;3.00;99.90;;;;;;15247643;23;20040;-81
2023/11/27 07:01:13;;;;;;;12.15;11.00;;;3.00;99.90;;;;;;15244873;23;20084;-81
2023/11/27 07:07:15;;;;;;;13.30;12.00;;;3.00;99.90;;;;;;15248668;23;20112;-81
2023/11/27 07:13:17;;;;;;;14.23;11.73;;;3.00;99.90;;;;;;15250416;23;20110;-83
2023/11/27 07:19:19;;;;;;;13.82;11.82;;;3.00;99.90;;;;;;15250561;23;20068;-81
2023/11/27 07:25:21;;;;;;;14.85;10.07;;;3.00;99.90;;;;;;15253129;23;20032;-81
2023/11/27 07:31:31;;;;;;;13.43;10.65;;;2.90;99.90;;;;;;15223636;23;20025;-81
2023/11/27 07:37:34;;;;;;;12.30;9.70;;;2.90;99.90;;;;;;15249825;23;20329;-84
2023/11/27 07:43:36;;;;;;;14.88;10.80;;;2.90;99.90;;;;;;15247931;23;20079;-85
2023/11/27 07:49:38;;;;;;;11.93;10.68;;;2.90;99.90;;;;;;15238402;23;20070;-82
2023/11/27 07:55:40;;;;;;;12.38;10.07;;;3.00;99.90;;;;;;15242245;23;20452;-82
2023/11/27 08:01:44;;;;;;;11.65;10.00;;;3.10;99.90;;;;;;15249040;23;20032;-82
2023/11/27 08:07:47;;;;;;;11.57;10.17;;;3.10;99.90;;;;;;15252151;23;20402;-80
2023/11/27 08:13:49;;;;;;;12.15;10.35;;;3.10;99.90;;;;;;15248784;23;20034;-81
2023/11/27 08:19:51;;;;;;;13.25;9.77;;;3.20;99.90;;;;;;15246213;23;20051;-82
2023/11/27 08:25:53;;;;;;;13.15;8.98;;;3.20;99.90;;;;;;15244737;23;20399;-81
2023/11/27 08:31:58;;;;;;;13.98;9.63;;;3.20;99.90;;;;;;15249693;23;20025;-82
2023/11/27 08:38:04;;;;;;;11.30;8.75;;;3.20;99.90;;;;;;15242917;23;20045;-82
2023/11/27 08:44:08;;;;;;;13.07;9.48;;;3.20;99.90;;;;;;15253533;23;20467;-81
2023/11/27 08:50:13;;;;;;;10.18;9.18;;;3.30;99.90;;;;;;15253537;23;20029;-85
2023/11/27 08:56:17;;;;;;;11.23;9.05;;;3.30;99.90;;;;;;15266401;23;20073;-87
2023/11/27 09:02:21;;;;;;;10.93;9.15;;;3.40;99.90;;;;;;15267817;23;20031;-86
2023/11/27 09:08:23;;;;;;;11.60;8.52;;;3.30;99.90;;;;;;15267956;23;20118;-85
2023/11/27 09:14:26;;;;;;;9.98;8.43;;;3.30;99.90;;;;;;15260074;23;20044;-85
2023/11/27 09:20:27;;;;;;;10.32;8.73;;;3.30;99.90;;;;;;15259268;23;20028;-85
2023/11/27 09:26:31;;;;;;;10.32;8.85;;;3.30;99.90;;;;;;15252371;23;20021;-85
2023/11/27 09:32:36;;;;;;;10.93;7.97;;;3.30;99.90;;;;;;15248871;23;20022;-84
2023/11/27 09:38:40;;;;;;;9.75;8.10;;;3.30;99.90;;;;;;15250490;23;20032;-85
2023/11/27 09:44:43;;;;;;;10.32;8.75;;;3.30;99.90;;;;;;15254352;23;20026;-85
2023/11/27 09:50:46;;;;;;;10.10;7.93;;;3.40;99.90;;;;;;15252037;23;20030;-84
2023/11/27 09:56:50;;;;;;;10.80;8.30;;;3.40;99.90;;;;;;15252331;23;20448;-83
2023/11/27 10:02:52;;;;;;;9.67;7.93;;;3.30;99.90;;;;;;15250533;23;20565;-83
2023/11/27 10:09:07;;;;;;;10.73;7.80;;;3.30;99.90;;;;;;15255071;23;20092;-81
2023/11/27 10:15:11;;;;;;;9.50;6.85;;;3.30;99.90;;;;;;15250766;23;20025;-84
2023/11/27 10:21:15;;;;;;;10.07;7.25;;;3.20;99.90;;;;;;15249695;23;20351;-82
2023/11/27 10:27:18;;;;;;;11.07;7.90;;;3.20;99.90;;;;;;15249537;23;20043;-83
2023/11/27 10:33:21;;;;;;;8.93;7.10;;;3.20;99.90;;;;;;15247872;23;20435;-81
2023/11/27 10:39:25;;;;;;;9.40;7.05;;;3.10;99.90;;;;;;15241511;23;20123;-83
2023/11/27 10:45:30;;;;;;;8.53;7.40;;;3.00;99.90;;;;;;15243587;23;20026;-82
2023/11/27 10:51:33;;;;;;;8.50;6.53;;;2.80;99.90;;;;;;15245235;23;20763;-81
2023/11/27 10:57:38;;;;;;;8.15;6.78;;;2.70;99.90;;;;;;15247065;23;20486;-82
2023/11/27 11:03:42;;;;;;;8.95;7.20;;;2.60;99.90;;;;;;15245496;23;20025;-81
2023/11/27 11:09:55;;;;;;;7.38;6.47;;;2.50;99.90;;;;;;15252518;23;20572;-86
2023/11/27 11:16:31;;;;;;;7.63;6.40;;;2.40;99.90;;;;;;15250507;23;20467;-85
2023/11/27 11:22:55;;;;;;;9.00;7.50;;;2.20;99.90;;;;;;15249217;23;20018;-85
2023/11/27 11:29:12;;;;;;;11.63;8.02;;;2.10;99.90;;;;;;15252334;23;20036;-85
2023/11/27 11:35:17;;;;;;;8.40;7.10;;;1.90;99.90;;;;;;15244315;23;20524;-85
2023/11/27 11:41:20;;;;;;;8.40;7.60;;;1.80;99.90;;;;;;15248610;23;20053;-85
2023/11/27 11:47:26;;;;;;;8.60;7.72;;;1.80;99.90;;;;;;15248909;23;20033;-85
2023/11/27 11:53:28;;;;;;;7.95;7.25;;;1.70;99.90;;;;;;15248591;23;20025;-85
2023/11/27 11:59:37;;;;;;;7.90;6.93;;;1.60;99.90;;;;;;15248339;23;20021;-86
2023/11/27 12:05:39;;;;;;;8.52;7.72;;;1.60;99.90;;;;;;15251516;23;20460;-86
2023/11/27 12:11:41;;;;;;;7.63;6.88;;;1.70;99.90;;;;;;15255702;23;20187;-84
2023/11/27 12:17:49;;;;;;;7.75;7.05;;;1.60;99.90;;;;;;15269767;23;20249;-84
2023/11/27 12:23:53;;;;;;;7.60;6.90;;;1.70;99.90;;;;;;15253445;23;20083;-83
2023/11/27 12:29:57;;;;;;;7.85;6.70;;;1.60;99.90;;;;;;15248527;23;20044;-85
2023/11/27 12:36:04;;;;;;;6.18;5.57;;;1.60;99.90;;;;;;15244938;23;20029;-84
2023/11/27 12:42:13;;;;;;;7.85;7.07;;;1.60;99.90;;;;;;15246147;23;20355;-85
2023/11/27 12:48:21;;;;;;;7.85;7.22;;;1.50;99.90;;;;;;15246681;23;20037;-85
2023/11/27 12:54:27;;;;;;;7.20;6.70;;;1.50;99.90;;;;;;15251222;23;20086;-86
2023/11/27 13:00:31;;;;;;;8.77;7.95;;;1.40;99.90;;;;;;15251636;23;20022;-86
2023/11/27 13:06:36;;;;;;;8.45;7.70;;;1.50;99.90;;;;;;15246535;23;20720;-87
2023/11/27 13:12:48;;;;;;;7.72;7.03;;;1.30;99.90;;;;;;15253551;23;20616;-86
2023/11/27 13:18:50;;;;;;;7.28;6.63;;;1.30;99.90;;;;;;15258204;23;20025;-86
2023/11/27 13:24:53;;;;;;;7.45;6.85;;;1.20;99.90;;;;;;15253647;23;20371;-86
2023/11/27 13:30:56;;;;;;;6.90;6.32;;;1.20;99.90;;;;;;15247983;23;20029;-86
2023/11/27 13:37:07;;;;;;;7.60;6.90;;;1.20;99.90;;;;;;15244604;23;20025;-86
2023/11/27 13:43:13;;;;;;;7.25;6.65;;;1.20;99.90;;;;;;15247173;23;20498;-86
2023/11/27 13:49:19;;;;;;;7.75;7.15;;;1.20;99.90;;;;;;15241489;23;20361;-85
2023/11/27 13:55:21;;;;;;;7.38;6.88;;;1.20;99.90;;;;;;15235217;23;20026;-85
2023/11/27 14:01:24;;;;;;;9.68;8.77;;;1.10;99.90;;;;;;15243497;23;20459;-85
2023/11/27 14:07:33;;;;;;;9.20;8.50;;;1.20;99.90;;;;;;15240933;23;20354;-86
2023/11/27 14:13:46;;;;;;;8.48;7.80;;;1.20;99.90;;;;;;15245054;23;20022;-85
2023/11/27 14:32:12;;;;;;;9.00;8.38;;;1.10;99.90;;;;;;15239165;23;20025;-85
2023/11/27 14:38:15;;;;;;;9.93;8.88;;;1.10;99.90;;;;;;15232705;23;20074;-83
2023/11/27 14:44:17;;;;;;;8.60;7.90;;;1.10;99.90;;;;;;15229230;23;20030;-83
2023/11/27 14:50:27;;;;;;;8.70;8.00;;;1.10;99.90;;;;;;15223495;23;20075;-83
2023/11/27 14:56:32;;;;;;;8.60;8.00;;;1.10;99.90;;;;;;15218590;23;20454;-83
2023/11/27 15:02:36;;;;;;;8.85;8.25;;;1.00;99.90;;;;;;15220960;23;20104;-83
2023/11/27 15:08:38;;;;;;;8.38;7.78;;;1.10;99.90;;;;;;15222565;23;20021;-83
2023/11/27 15:14:40;;;;;;;8.43;7.82;;;1.00;99.90;;;;;;15217217;23;20104;-83
2023/11/27 15:20:44;;;;;;;9.20;8.35;;;1.00;99.90;;;;;;15246139;23;20065;-83
2023/11/27 15:26:50;;;;;;;8.98;8.38;;;1.00;99.90;;;;;;15247745;23;20577;-84
2023/11/27 15:32:52;;;;;;;9.07;8.48;;;1.10;99.90;;;;;;15246326;23;20100;-84
2023/11/27 15:38:57;;;;;;;8.85;8.25;;;1.00;99.90;;;;;;15241690;23;20508;-83
2023/11/27 15:44:59;;;;;;;9.27;8.68;;;1.00;99.90;;;;;;15238145;23;20030;-86
2023/11/27 15:51:01;;;;;;;7.72;7.22;;;1.00;99.90;;;;;;15228976;23;20465;-86
2023/11/27 15:57:03;;;;;;;8.35;7.70;;;1.00;99.90;;;;;;15221060;23;20025;-86
2023/11/27 16:03:06;;;;;;;8.27;7.70;;;1.00;99.90;;;;;;15227548;23;20022;-87
2023/11/27 16:09:08;;;;;;;7.97;7.47;;;1.00;99.90;;;;;;15247006;23;20025;-86
2023/11/27 16:15:12;;;;;;;7.75;7.25;;;1.00;99.90;;;;;;15250987;23;20033;-86
2023/11/27 16:21:18;;;;;;;11.37;10.53;;;1.00;99.90;;;;;;15248658;22;20123;-86
2023/11/27 16:27:20;;;;;;;9.68;9.07;;;0.90;99.90;;;;;;15248891;23;20523;-85
2023/11/27 16:33:23;;;;;;;9.80;9.20;;;0.90;99.90;;;;;;15250109;23;20029;-86
2023/11/27 16:39:25;;;;;;;8.35;7.75;;;0.90;99.90;;;;;;15249244;23;20017;-85
2023/11/27 16:45:27;;;;;;;8.32;7.72;;;0.90;99.90;;;;;;15249264;23;20041;-85
2023/11/27 16:51:31;;;;;;;8.65;8.05;;;0.90;99.90;;;;;;15246179;23;20100;-85
2023/11/27 16:57:33;;;;;;;10.23;9.57;;;0.90;99.90;;;;;;15250562;23;20025;-83
2023/11/27 17:03:37;;;;;;;9.38;8.77;;;0.90;99.90;;;;;;15247030;23;20351;-83
2023/11/27 17:09:39;;;;;;;11.38;10.68;;;0.90;99.90;;;;;;15246321;23;20490;-84
2023/11/27 17:15:44;;;;;;;8.77;8.07;;;0.90;99.90;;;;;;15244306;23;20025;-85
2023/11/27 17:21:47;;;;;;;9.80;9.00;;;0.90;99.90;;;;;;15247283;23;20021;-85
2023/11/27 17:27:49;;;;;;;9.93;9.15;;;0.90;99.90;;;;;;15246732;23;20025;-85
2023/11/27 17:33:51;;;;;;;11.00;10.20;;;0.90;99.90;;;;;;15242481;23;20025;-85
2023/11/27 17:39:53;;;;;;;10.82;9.98;;;0.90;99.90;;;;;;15248774;23;20355;-86
2023/11/27 17:45:55;;;;;;;10.50;9.60;;;0.90;99.90;;;;;;15243014;23;20036;-85
2023/11/27 17:51:57;;;;;;;10.35;9.48;;;0.90;99.90;;;;;;15231991;23;20032;-85
2023/11/27 17:57:59;;;;;;;11.15;10.35;;;0.90;99.90;;;;;;15242809;23;20028;-85
2023/11/27 18:04:04;;;;;;;11.75;10.68;;;0.90;99.90;;;;;;15240859;23;20037;-85
2023/11/27 18:10:07;;;;;;;11.02;10.23;;;0.90;99.90;;;;;;15240979;23;20026;-85
2023/11/27 18:16:11;;;;;;;10.57;9.57;;;1.00;99.90;;;;;;15242297;23;20465;-88
2023/11/27 18:22:13;;;;;;;11.68;10.77;;;0.90;99.90;;;;;;15246082;22;20026;-86
2023/11/27 18:28:15;;;;;;;10.05;9.35;;;0.90;99.90;;;;;;15242490;23;20388;-86
2023/11/27 18:34:17;;;;;;;10.73;9.93;;;0.90;99.90;;;;;;15243078;23;20026;-86
2023/11/27 18:40:19;;;;;;;10.32;9.63;;;0.90;99.90;;;;;;15244273;23;20026;-86
2023/11/27 18:46:24;;;;;;;10.52;9.82;;;0.90;99.90;;;;;;15242991;23;20103;-87
2023/11/27 18:52:27;;;;;;;8.95;8.35;;;1.00;99.90;;;;;;15246477;23;20351;-87
2023/11/27 18:58:29;;;;;;;10.90;10.20;;;1.00;99.90;;;;;;15246115;23;20359;-87
2023/11/27 19:04:32;;;;;;;10.35;9.68;;;1.00;99.90;;;;;;15242635;23;20063;-87
2023/11/27 19:10:35;;;;;;;12.05;11.05;;;1.10;99.90;;;;;;15238355;23;20030;-88
2023/11/27 19:16:37;;;;;;;11.07;10.18;;;1.00;99.90;;;;;;15236520;23;20025;-85
2023/11/27 19:22:39;;;;;;;45.17;28.95;;;1.00;99.90;;;;;;15234736;23;20044;-85
2023/11/27 19:28:42;;;;;;;18.05;16.55;;;1.00;99.90;;;;;;15234142;23;20082;-83
2023/11/27 19:34:44;;;;;;;14.73;13.60;;;1.00;99.90;;;;;;15235413;23;20103;-83
2023/11/27 19:40:48;;;;;;;12.30;11.07;;;1.00;99.90;;;;;;15240984;23;20049;-83
2023/11/27 19:46:54;;;;;;;13.47;12.47;;;1.00;99.90;;;;;;15239880;23;20448;-83
2023/11/27 19:52:59;;;;;;;13.13;11.63;;;0.90;99.90;;;;;;15237848;23;20028;-82
2023/11/27 19:59:01;;;;;;;13.80;12.73;;;1.00;99.90;;;;;;15237105;23;20021;-82
2023/11/27 20:05:05;;;;;;;13.73;12.82;;;0.90;99.90;;;;;;15238712;23;20026;-82
2023/11/27 20:11:10;;;;;;;16.17;14.70;;;1.00;99.90;;;;;;15262451;23;20049;-83
2023/11/27 20:17:11;;;;;;;15.65;14.45;;;1.00;99.90;;;;;;15254018;23;20025;-83
2023/11/27 20:23:14;;;;;;;14.68;13.48;;;0.90;99.90;;;;;;15237437;23;20079;-82
2023/11/27 20:29:16;;;;;;;17.88;16.48;;;0.90;99.90;;;;;;15241671;23;20032;-87
2023/11/27 20:35:17;;;;;;;15.98;14.57;;;0.90;99.90;;;;;;15241803;23;20048;-85
2023/11/27 20:41:19;;;;;;;15.95;14.70;;;0.90;99.90;;;;;;15247372;23;20029;-84
2023/11/27 20:47:22;;;;;;;16.33;15.10;;;0.80;99.90;;;;;;15244920;23;20036;-84
2023/11/27 20:53:25;;;;;;;15.80;14.60;;;0.90;99.90;;;;;;15247987;23;20036;-85
2023/11/27 20:59:27;;;;;;;16.83;15.55;;;0.80;99.90;;;;;;15241551;23;20022;-84
2023/11/27 21:05:28;;;;;;;15.13;14.02;;;0.80;99.90;;;;;;15249581;23;20036;-84
2023/11/27 21:11:31;;;;;;;15.45;14.25;;;0.80;99.90;;;;;;15245273;23;20759;-84
2023/11/27 21:17:33;;;;;;;16.00;14.80;;;0.70;99.90;;;;;;15244970;23;20022;-84
2023/11/27 21:23:35;;;;;;;16.20;15.00;;;0.70;99.90;;;;;;15242471;23;20104;-85
2023/11/27 21:29:37;;;;;;;16.13;14.93;;;0.70;99.90;;;;;;15245297;23;20347;-85
2023/11/27 21:35:39;;;;;;;15.40;14.00;;;0.80;99.90;;;;;;15241488;23;20025;-86
2023/11/27 21:41:43;;;;;;;17.38;15.85;;;0.80;99.90;;;;;;15245102;23;20021;-85
2023/11/27 21:47:45;;;;;;;17.38;16.08;;;0.70;99.90;;;;;;15240643;23;20021;-86
2023/11/27 21:53:47;;;;;;;15.90;14.77;;;0.80;99.90;;;;;;15247910;23;20167;-86
2023/11/27 21:59:49;;;;;;;15.80;14.80;;;0.70;99.90;;;;;;15241666;23;20104;-87
2023/11/27 22:05:51;;;;;;;15.25;14.25;;;0.70;99.90;;;;;;15246962;23;20053;-86
2023/11/27 22:11:53;;;;;;;14.90;14.00;;;0.70;99.90;;;;;;15241055;23;20028;-86
2023/11/27 22:17:55;;;;;;;12.40;11.60;;;0.70;99.90;;;;;;15243950;23;20025;-86
2023/11/27 22:23:57;;;;;;;12.18;11.38;;;0.60;99.90;;;;;;15244314;23;20798;-85
2023/11/27 22:29:59;;;;;;;13.70;12.80;;;0.70;99.90;;;;;;15242723;23;20356;-87
2023/11/27 22:36:02;;;;;;;13.10;12.32;;;0.70;99.90;;;;;;15243633;23;20026;-86
2023/11/27 22:42:04;;;;;;;12.35;11.65;;;0.70;99.90;;;;;;15244079;23;20528;-87
2023/11/27 22:48:06;;;;;;;12.35;11.65;;;0.70;99.90;;;;;;15243210;23;20036;-87
2023/11/27 22:54:08;;;;;;;12.52;11.82;;;0.70;99.90;;;;;;15246310;23;20026;-87
2023/11/27 23:00:12;;;;;;;12.20;11.43;;;0.70;99.90;;;;;;15246714;23;20359;-85
2023/11/27 23:06:14;;;;;;;13.90;13.10;;;0.70;99.90;;;;;;15247627;23;20025;-85
2023/11/27 23:12:34;;;;;;;14.57;13.57;;;0.70;99.90;;;;;;15244577;23;20036;-85
2023/11/27 23:18:36;;;;;;;14.57;13.60;;;0.60;99.90;;;;;;15243083;23;20091;-84
2023/11/27 23:24:37;;;;;;;14.60;13.60;;;0.60;99.90;;;;;;15243593;23;20064;-85
2023/11/27 23:30:41;;;;;;;16.10;15.00;;;0.60;99.90;;;;;;15244541;23;20032;-85
2023/11/27 23:36:43;;;;;;;15.55;14.45;;;0.60;99.90;;;;;;15243334;23;20036;-84
2023/11/27 23:42:45;;;;;;;15.82;14.73;;;0.60;99.90;;;;;;15243230;23;20026;-84
2023/11/27 23:48:47;;;;;;;15.80;14.70;;;0.50;99.90;;;;;;15243700;23;20026;-84
2023/11/27 23:54:54;;;;;;;16.63;15.43;;;0.50;99.90;;;;;;15245403;23;20109;-85
